sensor_id;sensor_type;location;lat;lon;timestamp;pressure;altitude;pressure_sealevel;temperature;humidity
23164;BME280;31429;42.674;23.350;2023-07-09T00:00:52;95208.75;;;19.62;100.00
23164;BME280;31429;42.674;23.350;2023-07-09T00:01:54;95212.91;;;19.65;100.00
23164;BME280;31429;42.674;23.350;2023-07-09T00:02:55;95207.63;;;19.66;100.00
23164;BME280;31429;42.674;23.350;2023-07-09T00:03:55;95207.00;;;19.63;100.00
23164;BME280;31429;42.674;23.350;2023-07-09T00:04:56;95205.72;;;19.56;100.00
23164;BME280;31429;42.674;23.350;2023-07-09T00:05:57;95201.06;;;19.48;100.00
23164;BME280;31429;42.674;23.350;2023-07-09T00:07:00;95200.34;;;19.46;100.00
23164;BME280;31429;42.674;23.350;2023-07-09T00:08:02;95202.13;;;19.58;100.00
23164;BME280;31429;42.674;23.350;2023-07-09T00:09:03;95196.69;;;19.48;100.00
23164;BME280;31429;42.674;23.350;2023-07-09T00:10:09;95207.66;;;19.39;100.00
23164;BME280;31429;42.674;23.350;2023-07-09T00:11:14;95209.06;;;19.31;100.00
23164;BME280;31429;42.674;23.350;2023-07-09T00:12:17;95204.72;;;19.31;100.00
23164;BME280;31429;42.674;23.350;2023-07-09T00:13:17;95214.44;;;19.28;100.00
23164;BME280;31429;42.674;23.350;2023-07-09T00:14:18;95201.81;;;19.36;100.00
23164;BME280;31429;42.674;23.350;2023-07-09T00:15:19;95204.31;;;19.37;100.00
23164;BME280;31429;42.674;23.350;2023-07-09T00:16:22;95198.66;;;19.45;100.00
23164;BME280;31429;42.674;23.350;2023-07-09T00:17:26;95198.47;;;19.48;100.00
23164;BME280;31429;42.674;23.350;2023-07-09T00:18:27;95198.78;;;19.43;100.00
23164;BME280;31429;42.674;23.350;2023-07-09T00:19:28;95201.94;;;19.34;100.00
23164;BME280;31429;42.674;23.350;2023-07-09T00:20:29;95202.84;;;19.33;100.00
23164;BME280;31429;42.674;23.350;2023-07-09T00:21:30;95196.22;;;19.29;100.00
23164;BME280;31429;42.674;23.350;2023-07-09T00:22:34;95198.06;;;19.27;100.00
23164;BME280;31429;42.674;23.350;2023-07-09T00:23:34;95201.69;;;19.25;100.00
23164;BME280;31429;42.674;23.350;2023-07-09T00:24:35;95194.72;;;19.25;100.00
23164;BME280;31429;42.674;23.350;2023-07-09T00:25:36;95196.41;;;19.26;100.00
23164;BME280;31429;42.674;23.350;2023-07-09T00:26:37;95198.59;;;19.32;100.00
23164;BME280;31429;42.674;23.350;2023-07-09T00:27:39;95201.41;;;19.29;100.00
23164;BME280;31429;42.674;23.350;2023-07-09T00:28:40;95196.09;;;19.31;100.00
23164;BME280;31429;42.674;23.350;2023-07-09T00:29:41;95194.16;;;19.34;100.00
23164;BME280;31429;42.674;23.350;2023-07-09T00:30:41;95187.94;;;19.37;100.00
23164;BME280;31429;42.674;23.350;2023-07-09T00:31:42;95198.97;;;19.40;100.00
23164;BME280;31429;42.674;23.350;2023-07-09T00:32:44;95196.38;;;19.40;100.00
23164;BME280;31429;42.674;23.350;2023-07-09T00:33:45;95193.94;;;19.37;100.00
23164;BME280;31429;42.674;23.350;2023-07-09T00:34:47;95192.28;;;19.36;100.00
23164;BME280;31429;42.674;23.350;2023-07-09T00:35:51;95191.75;;;19.31;100.00
23164;BME280;31429;42.674;23.350;2023-07-09T00:36:52;95195.06;;;19.33;100.00
23164;BME280;31429;42.674;23.350;2023-07-09T00:37:54;95196.81;;;19.33;100.00
23164;BME280;31429;42.674;23.350;2023-07-09T00:38:54;95187.19;;;19.35;100.00
23164;BME280;31429;42.674;23.350;2023-07-09T00:39:55;95188.53;;;19.28;100.00
23164;BME280;31429;42.674;23.350;2023-07-09T00:41:02;95194.16;;;19.34;100.00
23164;BME280;31429;42.674;23.350;2023-07-09T00:42:05;95191.34;;;19.37;100.00
23164;BME280;31429;42.674;23.350;2023-07-09T00:43:13;95199.22;;;19.36;100.00
23164;BME280;31429;42.674;23.350;2023-07-09T00:44:28;95189.88;;;19.33;100.00
23164;BME280;31429;42.674;23.350;2023-07-09T00:45:31;95183.97;;;19.31;100.00
23164;BME280;31429;42.674;23.350;2023-07-09T00:48:23;95187.09;;;19.36;100.00
23164;BME280;31429;42.674;23.350;2023-07-09T00:49:29;95187.69;;;19.27;100.00
23164;BME280;31429;42.674;23.350;2023-07-09T00:50:35;95189.25;;;19.30;100.00
23164;BME280;31429;42.674;23.350;2023-07-09T00:51:38;95187.16;;;19.22;100.00
23164;BME280;31429;42.674;23.350;2023-07-09T00:52:52;95182.81;;;19.23;100.00
23164;BME280;31429;42.674;23.350;2023-07-09T00:53:58;95190.47;;;19.24;100.00
23164;BME280;31429;42.674;23.350;2023-07-09T00:55:05;95185.84;;;19.29;100.00
23164;BME280;31429;42.674;23.350;2023-07-09T00:56:08;95171.31;;;19.27;100.00
23164;BME280;31429;42.674;23.350;2023-07-09T00:57:13;95185.94;;;19.28;100.00
23164;BME280;31429;42.674;23.350;2023-07-09T00:58:18;95177.22;;;19.29;100.00
23164;BME280;31429;42.674;23.350;2023-07-09T00:59:22;95179.28;;;19.24;100.00
23164;BME280;31429;42.674;23.350;2023-07-09T01:00:28;95180.81;;;19.14;100.00
23164;BME280;31429;42.674;23.350;2023-07-09T01:01:32;95181.19;;;19.08;100.00
23164;BME280;31429;42.674;23.350;2023-07-09T01:02:34;95180.28;;;19.09;100.00
23164;BME280;31429;42.674;23.350;2023-07-09T01:03:39;95185.53;;;19.07;100.00
23164;BME280;31429;42.674;23.350;2023-07-09T01:04:42;95185.66;;;19.06;100.00
23164;BME280;31429;42.674;23.350;2023-07-09T01:05:43;95190.94;;;19.04;100.00
23164;BME280;31429;42.674;23.350;2023-07-09T01:06:45;95184.22;;;19.14;100.00
23164;BME280;31429;42.674;23.350;2023-07-09T01:07:48;95179.56;;;19.19;100.00
23164;BME280;31429;42.674;23.350;2023-07-09T01:08:49;95184.03;;;19.17;100.00
23164;BME280;31429;42.674;23.350;2023-07-09T01:09:53;95179.97;;;19.13;100.00
23164;BME280;31429;42.674;23.350;2023-07-09T01:10:54;95179.25;;;19.11;100.00
23164;BME280;31429;42.674;23.350;2023-07-09T01:11:55;95185.16;;;19.13;100.00
23164;BME280;31429;42.674;23.350;2023-07-09T01:12:56;95187.00;;;19.11;100.00
23164;BME280;31429;42.674;23.350;2023-07-09T01:13:59;95187.31;;;19.07;100.00
23164;BME280;31429;42.674;23.350;2023-07-09T01:15:02;95182.22;;;19.05;100.00
23164;BME280;31429;42.674;23.350;2023-07-09T01:16:04;95175.47;;;19.03;100.00
23164;BME280;31429;42.674;23.350;2023-07-09T01:17:06;95182.03;;;19.08;100.00
23164;BME280;31429;42.674;23.350;2023-07-09T01:18:08;95184.09;;;19.03;100.00
23164;BME280;31429;42.674;23.350;2023-07-09T01:19:12;95180.97;;;18.98;100.00
23164;BME280;31429;42.674;23.350;2023-07-09T01:20:17;95175.78;;;18.98;100.00
23164;BME280;31429;42.674;23.350;2023-07-09T01:21:22;95174.75;;;19.01;100.00
23164;BME280;31429;42.674;23.350;2023-07-09T01:22:24;95178.44;;;18.97;100.00
23164;BME280;31429;42.674;23.350;2023-07-09T01:23:24;95177.34;;;19.01;100.00
23164;BME280;31429;42.674;23.350;2023-07-09T01:24:51;95173.91;;;19.00;100.00
23164;BME280;31429;42.674;23.350;2023-07-09T01:25:53;95177.53;;;18.98;100.00
23164;BME280;31429;42.674;23.350;2023-07-09T01:26:54;95176.69;;;18.97;100.00
23164;BME280;31429;42.674;23.350;2023-07-09T01:27:55;95173.19;;;18.98;100.00
23164;BME280;31429;42.674;23.350;2023-07-09T01:28:56;95173.06;;;19.00;100.00
23164;BME280;31429;42.674;23.350;2023-07-09T01:29:57;95174.75;;;19.01;100.00
23164;BME280;31429;42.674;23.350;2023-07-09T01:30:59;95173.41;;;19.08;100.00
23164;BME280;31429;42.674;23.350;2023-07-09T01:32:00;95169.47;;;19.02;100.00
23164;BME280;31429;42.674;23.350;2023-07-09T01:33:03;95169.75;;;18.98;100.00
23164;BME280;31429;42.674;23.350;2023-07-09T01:34:06;95167.66;;;18.90;100.00
23164;BME280;31429;42.674;23.350;2023-07-09T01:35:07;95168.47;;;18.90;100.00
23164;BME280;31429;42.674;23.350;2023-07-09T01:36:08;95170.44;;;18.87;100.00
23164;BME280;31429;42.674;23.350;2023-07-09T01:37:11;95172.41;;;18.83;100.00
23164;BME280;31429;42.674;23.350;2023-07-09T01:38:11;95173.63;;;18.78;100.00
23164;BME280;31429;42.674;23.350;2023-07-09T01:39:12;95169.66;;;18.72;100.00
23164;BME280;31429;42.674;23.350;2023-07-09T01:40:15;95168.09;;;18.70;100.00
23164;BME280;31429;42.674;23.350;2023-07-09T01:41:16;95167.44;;;18.66;100.00
23164;BME280;31429;42.674;23.350;2023-07-09T01:42:17;95167.34;;;18.68;100.00
23164;BME280;31429;42.674;23.350;2023-07-09T01:43:18;95169.19;;;18.66;100.00
23164;BME280;31429;42.674;23.350;2023-07-09T01:44:19;95174.38;;;18.66;100.00
23164;BME280;31429;42.674;23.350;2023-07-09T01:45:19;95169.19;;;18.66;100.00
23164;BME280;31429;42.674;23.350;2023-07-09T01:46:20;95177.16;;;18.63;100.00
23164;BME280;31429;42.674;23.350;2023-07-09T01:47:22;95175.88;;;18.56;100.00
23164;BME280;31429;42.674;23.350;2023-07-09T01:48:25;95176.91;;;18.53;100.00
23164;BME280;31429;42.674;23.350;2023-07-09T01:49:26;95185.50;;;18.54;100.00
23164;BME280;31429;42.674;23.350;2023-07-09T01:50:30;95177.09;;;18.50;100.00
23164;BME280;31429;42.674;23.350;2023-07-09T01:51:30;95179.84;;;18.47;100.00
23164;BME280;31429;42.674;23.350;2023-07-09T01:52:33;95182.69;;;18.43;100.00
23164;BME280;31429;42.674;23.350;2023-07-09T01:53:34;95182.88;;;18.39;100.00
23164;BME280;31429;42.674;23.350;2023-07-09T01:54:36;95181.44;;;18.35;100.00
23164;BME280;31429;42.674;23.350;2023-07-09T01:55:40;95179.09;;;18.31;100.00
23164;BME280;31429;42.674;23.350;2023-07-09T01:56:40;95177.47;;;18.30;100.00
23164;BME280;31429;42.674;23.350;2023-07-09T01:57:41;95181.69;;;18.31;100.00
23164;BME280;31429;42.674;23.350;2023-07-09T01:58:42;95177.16;;;18.34;100.00
23164;BME280;31429;42.674;23.350;2023-07-09T01:59:43;95176.25;;;18.35;100.00
23164;BME280;31429;42.674;23.350;2023-07-09T02:00:44;95182.34;;;18.34;100.00
23164;BME280;31429;42.674;23.350;2023-07-09T02:01:45;95181.50;;;18.34;100.00
23164;BME280;31429;42.674;23.350;2023-07-09T02:02:46;95182.34;;;18.34;100.00
23164;BME280;31429;42.674;23.350;2023-07-09T02:03:47;95182.72;;;18.28;100.00
23164;BME280;31429;42.674;23.350;2023-07-09T02:04:49;95181.81;;;18.29;100.00
23164;BME280;31429;42.674;23.350;2023-07-09T02:05:52;95174.88;;;18.30;100.00
23164;BME280;31429;42.674;23.350;2023-07-09T02:06:52;95182.53;;;18.31;100.00
23164;BME280;31429;42.674;23.350;2023-07-09T02:07:54;95186.59;;;18.35;100.00
23164;BME280;31429;42.674;23.350;2023-07-09T02:08:55;95186.41;;;18.38;100.00
23164;BME280;31429;42.674;23.350;2023-07-09T02:09:56;95185.22;;;18.30;100.00
23164;BME280;31429;42.674;23.350;2023-07-09T02:10:57;95187.63;;;18.19;100.00
23164;BME280;31429;42.674;23.350;2023-07-09T02:11:58;95192.41;;;18.11;100.00
23164;BME280;31429;42.674;23.350;2023-07-09T02:12:59;95190.78;;;18.10;100.00
23164;BME280;31429;42.674;23.350;2023-07-09T02:13:59;95187.16;;;18.12;100.00
23164;BME280;31429;42.674;23.350;2023-07-09T02:15:00;95186.44;;;18.10;100.00
23164;BME280;31429;42.674;23.350;2023-07-09T02:16:00;95191.03;;;18.05;100.00
23164;BME280;31429;42.674;23.350;2023-07-09T02:17:01;95187.53;;;18.06;100.00
23164;BME280;31429;42.674;23.350;2023-07-09T02:18:02;95194.44;;;18.06;100.00
23164;BME280;31429;42.674;23.350;2023-07-09T02:19:03;95188.19;;;17.96;100.00
23164;BME280;31429;42.674;23.350;2023-07-09T02:20:04;95184.19;;;17.90;100.00
23164;BME280;31429;42.674;23.350;2023-07-09T02:21:07;95188.63;;;17.88;100.00
23164;BME280;31429;42.674;23.350;2023-07-09T02:22:09;95181.25;;;17.82;100.00
23164;BME280;31429;42.674;23.350;2023-07-09T02:23:11;95190.09;;;17.78;100.00
23164;BME280;31429;42.674;23.350;2023-07-09T02:24:12;95191.94;;;17.76;100.00
23164;BME280;31429;42.674;23.350;2023-07-09T02:25:12;95186.19;;;17.71;100.00
23164;BME280;31429;42.674;23.350;2023-07-09T02:26:13;95187.66;;;17.61;100.00
23164;BME280;31429;42.674;23.350;2023-07-09T02:27:15;95184.16;;;17.62;100.00
23164;BME280;31429;42.674;23.350;2023-07-09T02:28:16;95189.50;;;17.59;100.00
23164;BME280;31429;42.674;23.350;2023-07-09T02:29:17;95190.25;;;17.61;100.00
23164;BME280;31429;42.674;23.350;2023-07-09T02:30:18;95194.31;;;17.65;100.00
23164;BME280;31429;42.674;23.350;2023-07-09T02:31:18;95188.50;;;17.61;100.00
23164;BME280;31429;42.674;23.350;2023-07-09T02:32:21;95188.97;;;17.68;100.00
23164;BME280;31429;42.674;23.350;2023-07-09T02:33:22;95200.13;;;17.68;100.00
23164;BME280;31429;42.674;23.350;2023-07-09T02:34:24;95193.13;;;17.70;100.00
23164;BME280;31429;42.674;23.350;2023-07-09T02:35:26;95198.19;;;17.58;100.00
23164;BME280;31429;42.674;23.350;2023-07-09T02:36:26;95198.34;;;17.55;100.00
23164;BME280;31429;42.674;23.350;2023-07-09T02:37:27;95195.91;;;17.67;100.00
23164;BME280;31429;42.674;23.350;2023-07-09T02:38:29;95199.41;;;17.66;100.00
23164;BME280;31429;42.674;23.350;2023-07-09T02:39:29;95202.94;;;17.50;100.00
23164;BME280;31429;42.674;23.350;2023-07-09T02:40:30;95201.59;;;17.43;100.00
23164;BME280;31429;42.674;23.350;2023-07-09T02:41:31;95197.78;;;17.34;100.00
23164;BME280;31429;42.674;23.350;2023-07-09T02:42:31;95207.72;;;17.42;100.00
23164;BME280;31429;42.674;23.350;2023-07-09T02:43:32;95213.06;;;17.39;100.00
23164;BME280;31429;42.674;23.350;2023-07-09T02:44:33;95211.38;;;17.38;100.00
23164;BME280;31429;42.674;23.350;2023-07-09T02:45:33;95210.38;;;17.40;100.00
23164;BME280;31429;42.674;23.350;2023-07-09T02:46:34;95207.03;;;17.38;100.00
23164;BME280;31429;42.674;23.350;2023-07-09T02:47:35;95212.56;;;17.32;100.00
23164;BME280;31429;42.674;23.350;2023-07-09T02:48:35;95215.47;;;17.26;100.00
23164;BME280;31429;42.674;23.350;2023-07-09T02:49:36;95212.50;;;17.34;100.00
23164;BME280;31429;42.674;23.350;2023-07-09T02:50:37;95210.81;;;17.33;100.00
23164;BME280;31429;42.674;23.350;2023-07-09T02:51:38;95215.31;;;17.29;100.00
23164;BME280;31429;42.674;23.350;2023-07-09T02:52:39;95216.19;;;17.14;100.00
23164;BME280;31429;42.674;23.350;2023-07-09T02:53:41;95211.50;;;17.20;100.00
23164;BME280;31429;42.674;23.350;2023-07-09T02:54:42;95220.53;;;17.13;100.00
23164;BME280;31429;42.674;23.350;2023-07-09T02:55:43;95212.59;;;17.16;100.00
23164;BME280;31429;42.674;23.350;2023-07-09T02:56:43;95221.03;;;17.04;100.00
23164;BME280;31429;42.674;23.350;2023-07-09T02:57:44;95216.53;;;16.92;100.00
23164;BME280;31429;42.674;23.350;2023-07-09T02:58:45;95222.03;;;16.86;100.00
23164;BME280;31429;42.674;23.350;2023-07-09T02:59:45;95228.28;;;16.82;100.00
23164;BME280;31429;42.674;23.350;2023-07-09T03:00:48;95225.72;;;16.82;100.00
23164;BME280;31429;42.674;23.350;2023-07-09T03:01:52;95227.88;;;16.74;100.00
23164;BME280;31429;42.674;23.350;2023-07-09T03:02:53;95227.22;;;16.71;100.00
23164;BME280;31429;42.674;23.350;2023-07-09T03:03:54;95222.63;;;16.76;100.00
23164;BME280;31429;42.674;23.350;2023-07-09T03:04:55;95230.94;;;16.65;100.00
23164;BME280;31429;42.674;23.350;2023-07-09T03:05:56;95225.28;;;16.58;100.00
23164;BME280;31429;42.674;23.350;2023-07-09T03:06:56;95227.94;;;16.57;100.00
23164;BME280;31429;42.674;23.350;2023-07-09T03:07:57;95222.13;;;16.53;100.00
23164;BME280;31429;42.674;23.350;2023-07-09T03:09:00;95230.44;;;16.58;100.00
23164;BME280;31429;42.674;23.350;2023-07-09T03:10:01;95232.56;;;16.50;100.00
23164;BME280;31429;42.674;23.350;2023-07-09T03:11:09;95233.72;;;16.45;100.00
23164;BME280;31429;42.674;23.350;2023-07-09T03:12:10;95234.72;;;16.42;100.00
23164;BME280;31429;42.674;23.350;2023-07-09T03:13:10;95227.88;;;16.41;100.00
23164;BME280;31429;42.674;23.350;2023-07-09T03:14:11;95234.88;;;16.39;100.00
23164;BME280;31429;42.674;23.350;2023-07-09T03:15:12;95226.72;;;16.47;100.00
23164;BME280;31429;42.674;23.350;2023-07-09T03:16:13;95228.84;;;16.56;100.00
23164;BME280;31429;42.674;23.350;2023-07-09T03:17:14;95222.66;;;16.43;100.00
23164;BME280;31429;42.674;23.350;2023-07-09T03:18:15;95227.03;;;16.41;100.00
23164;BME280;31429;42.674;23.350;2023-07-09T03:19:16;95227.47;;;16.33;100.00
23164;BME280;31429;42.674;23.350;2023-07-09T03:20:16;95221.56;;;16.47;100.00
23164;BME280;31429;42.674;23.350;2023-07-09T03:21:17;95223.78;;;16.54;100.00
23164;BME280;31429;42.674;23.350;2023-07-09T03:22:18;95224.69;;;16.53;100.00
23164;BME280;31429;42.674;23.350;2023-07-09T03:23:18;95224.16;;;16.47;100.00
23164;BME280;31429;42.674;23.350;2023-07-09T03:24:20;95227.13;;;16.56;100.00
23164;BME280;31429;42.674;23.350;2023-07-09T03:25:21;95230.88;;;16.49;100.00
23164;BME280;31429;42.674;23.350;2023-07-09T03:26:22;95235.94;;;16.35;100.00
23164;BME280;31429;42.674;23.350;2023-07-09T03:27:23;95226.88;;;16.28;100.00
23164;BME280;31429;42.674;23.350;2023-07-09T03:28:23;95232.03;;;16.28;100.00
23164;BME280;31429;42.674;23.350;2023-07-09T03:29:24;95227.72;;;16.29;100.00
23164;BME280;31429;42.674;23.350;2023-07-09T03:30:25;95222.88;;;16.38;100.00
23164;BME280;31429;42.674;23.350;2023-07-09T03:31:25;95225.09;;;16.46;100.00
23164;BME280;31429;42.674;23.350;2023-07-09T03:32:26;95226.06;;;16.43;100.00
23164;BME280;31429;42.674;23.350;2023-07-09T03:33:27;95228.97;;;16.37;100.00
23164;BME280;31429;42.674;23.350;2023-07-09T03:34:27;95233.53;;;16.32;100.00
23164;BME280;31429;42.674;23.350;2023-07-09T03:35:28;95232.03;;;16.28;100.00
23164;BME280;31429;42.674;23.350;2023-07-09T03:36:29;95234.53;;;16.30;100.00
23164;BME280;31429;42.674;23.350;2023-07-09T03:37:30;95234.09;;;16.22;100.00
23164;BME280;31429;42.674;23.350;2023-07-09T03:38:31;95225.59;;;16.20;100.00
23164;BME280;31429;42.674;23.350;2023-07-09T03:39:33;95229.94;;;16.19;100.00
23164;BME280;31429;42.674;23.350;2023-07-09T03:40:34;95220.72;;;16.31;100.00
23164;BME280;31429;42.674;23.350;2023-07-09T03:41:34;95224.56;;;16.39;100.00
23164;BME280;31429;42.674;23.350;2023-07-09T03:42:35;95225.47;;;16.38;100.00
23164;BME280;31429;42.674;23.350;2023-07-09T03:43:36;95228.19;;;16.35;100.00
23164;BME280;31429;42.674;23.350;2023-07-09T03:44:36;95227.22;;;16.38;100.00
23164;BME280;31429;42.674;23.350;2023-07-09T03:45:38;95218.97;;;16.31;100.00
23164;BME280;31429;42.674;23.350;2023-07-09T03:46:38;95227.25;;;16.21;100.00
23164;BME280;31429;42.674;23.350;2023-07-09T03:47:39;95232.41;;;16.21;100.00
23164;BME280;31429;42.674;23.350;2023-07-09T03:48:40;95233.19;;;16.23;100.00
23164;BME280;31429;42.674;23.350;2023-07-09T03:49:40;95227.03;;;16.25;100.00
23164;BME280;31429;42.674;23.350;2023-07-09T03:50:43;95227.09;;;16.24;100.00
23164;BME280;31429;42.674;23.350;2023-07-09T03:51:44;95229.69;;;16.24;100.00
23164;BME280;31429;42.674;23.350;2023-07-09T03:52:45;95230.78;;;16.20;100.00
23164;BME280;31429;42.674;23.350;2023-07-09T03:53:46;95233.19;;;16.23;100.00
23164;BME280;31429;42.674;23.350;2023-07-09T03:54:48;95230.34;;;16.27;100.00
23164;BME280;31429;42.674;23.350;2023-07-09T03:55:52;95232.25;;;16.24;100.00
23164;BME280;31429;42.674;23.350;2023-07-09T03:56:53;95227.09;;;16.24;100.00
23164;BME280;31429;42.674;23.350;2023-07-09T03:57:55;95231.34;;;16.25;100.00
23164;BME280;31429;42.674;23.350;2023-07-09T03:58:55;95229.34;;;16.30;100.00
23164;BME280;31429;42.674;23.350;2023-07-09T03:59:56;95228.19;;;16.35;100.00
23164;BME280;31429;42.674;23.350;2023-07-09T04:00:56;95229.56;;;16.42;100.00
23164;BME280;31429;42.674;23.350;2023-07-09T04:01:57;95234.41;;;16.48;100.00
23164;BME280;31429;42.674;23.350;2023-07-09T04:02:58;95234.25;;;16.51;100.00
23164;BME280;31429;42.674;23.350;2023-07-09T04:03:59;95231.34;;;16.57;100.00
23164;BME280;31429;42.674;23.350;2023-07-09T04:04:59;95233.69;;;16.62;100.00
23164;BME280;31429;42.674;23.350;2023-07-09T04:06:00;95231.63;;;16.69;100.00
23164;BME280;31429;42.674;23.350;2023-07-09T04:07:01;95236.53;;;16.73;100.00
23164;BME280;31429;42.674;23.350;2023-07-09T04:08:02;95238.94;;;16.76;100.00
23164;BME280;31429;42.674;23.350;2023-07-09T04:09:03;95239.94;;;16.74;100.00
23164;BME280;31429;42.674;23.350;2023-07-09T04:10:06;95238.59;;;16.66;100.00
23164;BME280;31429;42.674;23.350;2023-07-09T04:11:07;95240.63;;;16.77;100.00
23164;BME280;31429;42.674;23.350;2023-07-09T04:12:09;95240.78;;;16.74;100.00
23164;BME280;31429;42.674;23.350;2023-07-09T04:13:10;95241.03;;;16.85;100.00
23164;BME280;31429;42.674;23.350;2023-07-09T04:14:10;95242.53;;;16.89;100.00
23164;BME280;31429;42.674;23.350;2023-07-09T04:15:12;95242.69;;;16.86;100.00
23164;BME280;31429;42.674;23.350;2023-07-09T04:16:16;95241.78;;;16.87;100.00
23164;BME280;31429;42.674;23.350;2023-07-09T04:17:16;95242.53;;;16.89;100.00
23164;BME280;31429;42.674;23.350;2023-07-09T04:18:17;95249.94;;;16.95;100.00
23164;BME280;31429;42.674;23.350;2023-07-09T04:19:18;95246.94;;;17.03;100.00
23164;BME280;31429;42.674;23.350;2023-07-09T04:20:19;95245.84;;;17.07;100.00
23164;BME280;31429;42.674;23.350;2023-07-09T04:21:19;95237.94;;;17.10;100.00
23164;BME280;31429;42.674;23.350;2023-07-09T04:22:20;95242.03;;;17.14;100.00
23164;BME280;31429;42.674;23.350;2023-07-09T04:23:21;95253.84;;;17.18;100.00
23164;BME280;31429;42.674;23.350;2023-07-09T04:24:22;95244.41;;;17.17;100.00
23164;BME280;31429;42.674;23.350;2023-07-09T04:25:24;95246.50;;;17.26;100.00
23164;BME280;31429;42.674;23.350;2023-07-09T04:26:25;95248.59;;;17.19;100.00
23164;BME280;31429;42.674;23.350;2023-07-09T04:27:25;95247.25;;;17.28;100.00
23164;BME280;31429;42.674;23.350;2023-07-09T04:28:29;95248.00;;;17.30;100.00
23164;BME280;31429;42.674;23.350;2023-07-09T04:29:30;95254.56;;;17.36;100.00
23164;BME280;31429;42.674;23.350;2023-07-09T04:30:34;95245.66;;;17.41;100.00
23164;BME280;31429;42.674;23.350;2023-07-09T04:31:34;95245.38;;;17.46;100.00
23164;BME280;31429;42.674;23.350;2023-07-09T04:32:35;95253.13;;;17.46;100.00
23164;BME280;31429;42.674;23.350;2023-07-09T04:33:36;95250.78;;;17.57;100.00
23164;BME280;31429;42.674;23.350;2023-07-09T04:34:37;95257.84;;;17.69;100.00
23164;BME280;31429;42.674;23.350;2023-07-09T04:35:39;95255.47;;;17.80;100.00
23164;BME280;31429;42.674;23.350;2023-07-09T04:36:40;95256.97;;;17.84;100.00
23164;BME280;31429;42.674;23.350;2023-07-09T04:37:41;95254.03;;;17.90;100.00
23164;BME280;31429;42.674;23.350;2023-07-09T04:38:42;95255.63;;;17.93;100.00
23164;BME280;31429;42.674;23.350;2023-07-09T04:39:43;95264.81;;;17.83;100.00
23164;BME280;31429;42.674;23.350;2023-07-09T04:40:46;95264.59;;;17.71;100.00
23164;BME280;31429;42.674;23.350;2023-07-09T04:41:47;95266.28;;;17.72;100.00
23164;BME280;31429;42.674;23.350;2023-07-09T04:42:47;95267.53;;;17.65;100.00
23164;BME280;31429;42.674;23.350;2023-07-09T04:43:48;95264.72;;;17.70;100.00
23164;BME280;31429;42.674;23.350;2023-07-09T04:44:49;95261.16;;;17.87;100.00
23164;BME280;31429;42.674;23.350;2023-07-09T04:45:49;95266.69;;;17.95;100.00
23164;BME280;31429;42.674;23.350;2023-07-09T04:46:51;95254.13;;;17.89;100.00
23164;BME280;31429;42.674;23.350;2023-07-09T04:47:52;95262.44;;;17.94;100.00
23164;BME280;31429;42.674;23.350;2023-07-09T04:48:53;95264.25;;;18.07;100.00
23164;BME280;31429;42.674;23.350;2023-07-09T04:49:53;95263.22;;;18.10;100.00
23164;BME280;31429;42.674;23.350;2023-07-09T04:50:54;95266.47;;;18.13;100.00
23164;BME280;31429;42.674;23.350;2023-07-09T04:51:55;95266.00;;;18.21;100.00
23164;BME280;31429;42.674;23.350;2023-07-09T04:52:56;95266.00;;;18.21;100.00
23164;BME280;31429;42.674;23.350;2023-07-09T04:53:57;95265.19;;;18.20;100.00
23164;BME280;31429;42.674;23.350;2023-07-09T04:54:58;95267.88;;;18.19;100.00
23164;BME280;31429;42.674;23.350;2023-07-09T04:56:00;95261.47;;;18.10;100.00
23164;BME280;31429;42.674;23.350;2023-07-09T04:57:03;95257.84;;;17.99;100.00
23164;BME280;31429;42.674;23.350;2023-07-09T04:58:03;95261.97;;;17.87;100.00
23164;BME280;31429;42.674;23.350;2023-07-09T04:59:04;95262.69;;;18.05;100.00
23164;BME280;31429;42.674;23.350;2023-07-09T05:00:06;95263.25;;;18.24;100.00
23164;BME280;31429;42.674;23.350;2023-07-09T05:01:07;95264.53;;;18.31;100.00
23164;BME280;31429;42.674;23.350;2023-07-09T05:02:07;95261.03;;;18.32;100.00
23164;BME280;31429;42.674;23.350;2023-07-09T05:03:08;95269.16;;;18.26;100.00
23164;BME280;31429;42.674;23.350;2023-07-09T05:04:09;95265.19;;;18.20;100.00
23164;BME280;31429;42.674;23.350;2023-07-09T05:05:10;95272.88;;;18.22;100.00
23164;BME280;31429;42.674;23.350;2023-07-09T05:06:12;95266.84;;;18.21;100.00
23164;BME280;31429;42.674;23.350;2023-07-09T05:07:12;95266.50;;;18.27;100.00
23164;BME280;31429;42.674;23.350;2023-07-09T05:08:13;95267.59;;;18.37;100.00
23164;BME280;31429;42.674;23.350;2023-07-09T05:09:14;95269.91;;;18.42;100.00
23164;BME280;31429;42.674;23.350;2023-07-09T05:10:15;95269.28;;;18.67;100.00
23164;BME280;31429;42.674;23.350;2023-07-09T05:11:17;95272.06;;;18.78;100.00
23164;BME280;31429;42.674;23.350;2023-07-09T05:12:17;95275.75;;;18.60;100.00
23164;BME280;31429;42.674;23.350;2023-07-09T05:13:20;95276.50;;;18.76;100.00
23164;BME280;31429;42.674;23.350;2023-07-09T05:14:21;95272.72;;;18.81;100.00
23164;BME280;31429;42.674;23.350;2023-07-09T05:15:23;95276.03;;;18.69;100.00
23164;BME280;31429;42.674;23.350;2023-07-09T05:16:23;95276.75;;;19.00;100.00
23164;BME280;31429;42.674;23.350;2023-07-09T05:17:24;95279.63;;;18.95;100.00
23164;BME280;31429;42.674;23.350;2023-07-09T05:18:25;95273.34;;;18.85;100.00
23164;BME280;31429;42.674;23.350;2023-07-09T05:19:25;95274.72;;;18.76;100.00
23164;BME280;31429;42.674;23.350;2023-07-09T05:20:26;95276.50;;;18.76;100.00